Time;durP1;ratioP1;P1;durP2;ratioP2;P2;SDS_P1;SDS_P2;PMS_P1;PMS_P2;Temp;Humidity;BMP_temperature;BMP_pressure;BME280_temperature;BME280_humidity;BME280_pressure;Samples;Min_cycle;Max_cycle;Signal;HPM_P1;HPM_P2
2021/05/26 00:01:15;;;;;;;6.88;2.83;;;;;;;-145.61;100.00;68426.72;4794653;29;20355;-91
2021/05/26 00:03:41;;;;;;;6.28;3.40;;;;;;;-145.61;100.00;68426.72;4809167;29;20042;-92
2021/05/26 00:06:07;;;;;;;5.07;3.47;;;;;;;-145.61;100.00;68426.72;4794419;29;20113;-92
2021/05/26 00:08:37;;;;;;;6.10;3.78;;;;;;;-145.61;100.00;68426.72;4794587;29;20030;-91
2021/05/26 00:11:06;;;;;;;7.60;3.92;;;;;;;-145.61;100.00;68426.72;4794570;29;20037;-92
2021/05/26 00:13:31;;;;;;;6.00;3.70;;;;;;;-145.61;100.00;68426.72;4794387;29;20173;-92
2021/05/26 00:15:58;;;;;;;5.20;3.55;;;;;;;-145.61;100.00;68426.72;4794331;29;20121;-92
2021/05/26 00:18:24;;;;;;;8.43;3.80;;;;;;;5.48;86.45;96515.53;4794307;29;20339;-91
2021/05/26 00:20:52;;;;;;;8.13;3.92;;;;;;;-145.61;100.00;68426.72;4809035;29;20176;-91
2021/05/26 00:23:18;;;;;;;6.93;3.88;;;;;;;-145.61;100.00;68426.72;4809221;29;20455;-92
2021/05/26 00:25:44;;;;;;;7.80;3.00;;;;;;;-145.61;100.00;68426.72;4794309;29;20309;-92
2021/05/26 00:28:10;;;;;;;7.53;3.50;;;;;;;-145.61;100.00;68426.72;4794353;29;20424;-92
2021/05/26 00:30:43;;;;;;;7.50;2.92;;;;;;;-145.61;100.00;68426.72;4793654;29;20042;-92
2021/05/26 00:33:09;;;;;;;6.03;3.00;;;;;;;5.48;86.45;96515.53;4794207;29;20122;-92
2021/05/26 00:35:36;;;;;;;7.47;2.97;;;;;;;4.80;85.23;96537.03;4794296;29;20031;-91
2021/05/26 00:38:03;;;;;;;39.63;5.30;;;;;;;-145.61;100.00;68426.72;4794451;29;20069;-91
2021/05/26 00:40:29;;;;;;;8.77;3.67;;;;;;;-145.61;100.00;68426.72;4793962;29;20034;-91
2021/05/26 00:42:54;;;;;;;6.85;3.13;;;;;;;4.80;85.23;96537.03;4794129;29;20030;-91
2021/05/26 00:45:20;;;;;;;7.38;2.95;;;;;;;4.80;85.23;96537.03;4794072;29;20034;-92
2021/05/26 00:47:48;;;;;;;7.28;2.60;;;;;;;-145.61;100.00;68426.72;4793940;29;20031;-91
2021/05/26 00:50:22;;;;;;;7.43;3.10;;;;;;;-145.61;100.00;68426.72;4794983;29;20062;-92
2021/05/26 00:52:49;;;;;;;13.07;3.20;;;;;;;-145.61;100.00;68426.72;4804884;29;20039;-91
2021/05/26 00:55:17;;;;;;;6.70;2.78;;;;;;;-145.61;100.00;68426.72;4793938;29;20066;-93
2021/05/26 00:57:43;;;;;;;10.30;3.05;;;;;;;-145.61;100.00;68426.72;4808930;29;20058;-91
2021/05/26 01:00:14;;;;;;;5.70;2.20;;;;;;;-145.61;100.00;68426.72;4793731;29;20453;-91
2021/05/26 01:02:40;;;;;;;7.70;2.60;;;;;;;4.80;85.23;96537.03;4793891;29;20030;-91
2021/05/26 01:05:07;;;;;;;7.65;2.83;;;;;;;-145.61;100.00;68426.72;4794236;29;20034;-91
2021/05/26 01:07:33;;;;;;;8.52;2.80;;;;;;;4.80;85.23;96537.03;4794016;29;20031;-91
2021/05/26 01:09:59;;;;;;;9.82;2.65;;;;;;;-145.61;100.00;68426.72;4809098;29;20328;-91
2021/05/26 01:12:25;;;;;;;9.27;2.70;;;;;;;4.80;85.23;96537.03;4794216;29;20035;-92
2021/05/26 01:14:51;;;;;;;8.40;2.90;;;;;;;4.80;85.23;96537.03;4808914;29;20031;-91
2021/05/26 01:17:17;;;;;;;6.20;2.67;;;;;;;4.08;86.20;96476.47;4808945;29;20037;-91
2021/05/26 01:19:42;;;;;;;6.07;2.75;;;;;;;-145.61;100.00;68426.72;4793916;29;20031;-91
2021/05/26 01:22:08;;;;;;;9.90;3.30;;;;;;;4.08;86.20;96476.47;4793887;29;20030;-91
2021/05/26 01:24:34;;;;;;;10.52;2.65;;;;;;;4.65;87.93;96566.88;4793779;29;20039;-91
2021/05/26 01:27:01;;;;;;;8.95;2.55;;;;;;;-145.61;100.00;68426.72;4793619;29;20041;-91
2021/05/26 01:29:27;;;;;;;4.93;2.15;;;;;;;4.65;87.93;96566.88;4793345;29;20097;-90
2021/05/26 01:31:53;;;;;;;5.85;2.80;;;;;;;4.04;87.92;96494.59;4793675;29;20035;-91
2021/05/26 01:34:20;;;;;;;3.63;2.10;;;;;;;4.10;86.64;96484.13;4794022;29;20034;-92
2021/05/26 01:36:47;;;;;;;4.90;2.35;;;;;;;4.10;86.64;96484.13;4793498;29;20031;-91
2021/05/26 01:39:15;;;;;;;3.42;2.00;;;;;;;4.57;86.83;96570.88;4793241;29;20395;-91
2021/05/26 01:41:40;;;;;;;4.32;2.50;;;;;;;-145.61;100.00;68426.72;4793505;29;20055;-91
2021/05/26 01:44:06;;;;;;;8.93;2.65;;;;;;;4.57;86.83;96570.88;4795906;29;20421;-91
2021/05/26 01:46:32;;;;;;;7.93;2.63;;;;;;;4.19;85.61;96516.63;4796781;29;20455;-91
2021/05/26 01:48:58;;;;;;;6.45;2.20;;;;;;;4.19;85.61;96516.63;4796625;29;20051;-91
2021/05/26 01:51:23;;;;;;;7.07;2.38;;;;;;;4.19;85.61;96516.63;4796747;29;20424;-92
2021/05/26 01:53:52;;;;;;;3.08;2.47;;;;;;;-145.61;100.00;68426.72;4796649;29;20042;-91
2021/05/26 01:56:22;;;;;;;6.15;2.55;;;;;;;4.19;85.61;96516.63;4796597;29;20121;-92
2021/05/26 01:58:52;;;;;;;10.27;3.05;;;;;;;3.75;86.03;96485.50;4796646;29;20026;-92
2021/05/26 02:01:21;;;;;;;6.78;2.60;;;;;;;3.75;86.03;96485.50;4796860;29;20027;-91
2021/05/26 02:03:47;;;;;;;4.43;2.25;;;;;;;3.75;86.03;96485.50;4796647;29;20046;-92
2021/05/26 02:06:13;;;;;;;5.13;2.35;;;;;;;-145.61;100.00;68426.72;4796610;29;20489;-93
2021/05/26 02:08:40;;;;;;;5.13;2.25;;;;;;;-145.61;100.00;68426.72;4796499;29;20035;-92
2021/05/26 02:13:50;;;;;;;5.30;2.38;;;;;;;-145.61;100.00;68426.72;4813110;29;20175;-92
2021/05/26 02:16:16;;;;;;;4.93;1.70;;;;;;;-145.61;100.00;68426.72;4811503;29;20114;-91
2021/05/26 02:18:41;;;;;;;6.20;1.90;;;;;;;-145.61;100.00;68426.72;4796300;29;20381;-91
2021/05/26 02:21:07;;;;;;;3.10;1.75;;;;;;;-145.61;100.00;68426.72;4796574;29;20520;-92
2021/05/26 02:23:33;;;;;;;5.55;1.90;;;;;;;-145.61;100.00;68426.72;4796248;29;20034;-92
2021/05/26 02:25:59;;;;;;;6.70;1.63;;;;;;;-145.61;100.00;68426.72;4796117;29;20113;-91
2021/05/26 02:28:25;;;;;;;4.25;1.80;;;;;;;-145.61;100.00;68426.72;4796214;29;20184;-90
2021/05/26 02:30:50;;;;;;;6.57;1.80;;;;;;;-145.61;100.00;68426.72;4796061;29;20038;-91
2021/05/26 02:33:16;;;;;;;8.00;3.05;;;;;;;3.75;86.03;96485.50;4796134;29;20489;-91
2021/05/26 02:35:42;;;;;;;9.52;3.30;;;;;;;-145.61;100.00;68426.72;4811172;29;20092;-91
2021/05/26 02:38:09;;;;;;;6.93;3.00;;;;;;;-145.61;100.00;68426.72;4795973;29;20424;-91
2021/05/26 02:40:35;;;;;;;6.50;2.97;;;;;;;3.75;86.03;96485.50;4795894;29;20034;-91
2021/05/26 02:43:01;;;;;;;6.95;2.35;;;;;;;4.14;85.74;96577.00;4810984;29;20516;-91
2021/05/26 02:45:27;;;;;;;5.50;2.30;;;;;;;4.14;85.74;96577.00;4796154;29;20305;-92
2021/05/26 02:47:53;;;;;;;4.78;2.60;;;;;;;4.14;85.74;96577.00;4795829;29;20051;-91
2021/05/26 02:50:19;;;;;;;10.07;3.20;;;;;;;4.01;86.78;96576.06;4796348;29;20134;-92
2021/05/26 02:52:46;;;;;;;7.47;2.78;;;;;;;3.68;86.67;96540.13;4777856;30;20042;-91
2021/05/26 02:55:12;;;;;;;8.57;3.30;;;;;;;3.89;85.81;96569.34;4777687;30;20027;-91
2021/05/26 02:57:38;;;;;;;10.10;2.85;;;;;;;3.38;85.76;96522.16;4777252;30;20066;-91
2021/05/26 03:00:05;;;;;;;4.80;2.70;;;;;;;3.38;85.76;96522.16;4777804;30;20070;-92
2021/05/26 03:02:31;;;;;;;7.55;2.85;;;;;;;3.64;86.29;96558.97;4777926;30;20039;-91
2021/05/26 03:04:57;;;;;;;5.63;2.58;;;;;;;3.56;85.86;96548.75;4777887;30;20031;-91
2021/05/26 03:07:23;;;;;;;7.40;2.72;;;;;;;3.56;85.86;96548.75;4777719;30;20031;-92
2021/05/26 03:09:49;;;;;;;5.97;2.88;;;;;;;-145.61;100.00;68426.72;4777670;30;20027;-91
2021/05/26 03:12:14;;;;;;;7.88;3.60;;;;;;;3.45;86.24;96534.72;4777778;30;20047;-91
2021/05/26 03:14:40;;;;;;;9.60;3.88;;;;;;;3.25;86.69;96519.28;4777429;30;20341;-92
2021/05/26 03:17:06;;;;;;;8.32;3.65;;;;;;;3.37;85.34;96553.63;4777472;30;20113;-92
2021/05/26 03:19:32;;;;;;;12.07;3.92;;;;;;;3.17;87.21;96520.53;4777476;30;20044;-92
2021/05/26 03:21:57;;;;;;;8.23;3.22;;;;;;;3.47;86.42;96580.75;4778024;30;20030;-92
2021/05/26 03:24:24;;;;;;;6.38;2.72;;;;;;;3.46;85.99;96565.75;4793482;30;20043;-92
2021/05/26 03:26:50;;;;;;;5.07;2.60;;;;;;;3.62;87.74;96552.47;4777543;30;20425;-91
2021/05/26 03:29:16;;;;;;;4.78;2.60;;;;;;;3.96;86.57;96598.03;4777414;30;20038;-92
2021/05/26 03:31:42;;;;;;;6.70;2.53;;;;;;;3.96;86.57;96598.03;4777368;30;20088;-92
2021/05/26 03:34:08;;;;;;;6.95;2.50;;;;;;;3.64;85.87;96583.16;4777322;30;20027;-91
2021/05/26 03:36:33;;;;;;;4.22;2.40;;;;;;;3.64;85.87;96583.16;4776984;30;20046;-90
2021/05/26 03:38:59;;;;;;;11.90;3.10;;;;;;;3.64;85.87;96583.16;4777073;30;20035;-91
2021/05/26 03:41:24;;;;;;;7.00;2.95;;;;;;;3.61;86.20;96583.97;4777035;30;20044;-92
2021/05/26 03:43:50;;;;;;;5.40;2.92;;;;;;;3.46;86.04;96574.56;4777184;30;20378;-92
2021/05/26 03:46:16;;;;;;;7.88;3.20;;;;;;;3.47;85.81;96567.31;4777209;30;20031;-92
2021/05/26 03:48:41;;;;;;;9.65;2.90;;;;;;;3.47;85.81;96567.31;4779267;29;20047;-92
2021/05/26 03:51:07;;;;;;;7.32;2.47;;;;;;;3.81;87.30;96585.97;4794726;29;20042;-91
2021/05/26 03:53:33;;;;;;;7.82;3.22;;;;;;;4.10;85.51;96648.91;4794961;29;20417;-92
2021/05/26 03:55:58;;;;;;;6.35;2.45;;;;;;;3.58;84.41;96571.34;4794249;29;20085;-92
2021/05/26 03:58:24;;;;;;;4.20;2.33;;;;;;;3.58;84.41;96571.34;4794892;29;20031;-91
2021/05/26 04:00:50;;;;;;;4.85;2.40;;;;;;;3.58;84.41;96571.34;4795160;29;20038;-92
2021/05/26 04:03:16;;;;;;;10.88;2.50;;;;;;;-145.61;100.00;68426.72;4794898;29;20155;-92
2021/05/26 04:05:41;;;;;;;4.07;2.70;;;;;;;-145.61;100.00;68426.72;4794232;29;20450;-93
2021/05/26 04:08:07;;;;;;;10.95;2.90;;;;;;;-145.61;100.00;68426.72;4809252;29;20026;-91
2021/05/26 04:10:33;;;;;;;6.97;2.83;;;;;;;-145.61;100.00;68426.72;4794751;29;20039;-91
2021/05/26 04:12:58;;;;;;;9.48;4.25;;;;;;;-145.61;100.00;68426.72;4794456;29;20153;-91
2021/05/26 04:15:24;;;;;;;8.10;4.40;;;;;;;-145.61;100.00;68426.72;4794430;29;20042;-91
2021/05/26 04:17:50;;;;;;;11.95;4.32;;;;;;;3.58;84.41;96571.34;4794584;29;20031;-92
2021/05/26 04:20:15;;;;;;;9.57;4.65;;;;;;;3.58;84.41;96571.34;4794384;29;20412;-93
2021/05/26 04:22:41;;;;;;;13.13;5.50;;;;;;;3.58;84.41;96571.34;4794289;29;20143;-92
2021/05/26 04:25:08;;;;;;;9.27;4.35;;;;;;;-145.61;100.00;68426.72;4794138;29;20030;-92
2021/05/26 04:27:34;;;;;;;9.75;4.38;;;;;;;-145.61;100.00;68426.72;4794562;29;20125;-91
2021/05/26 04:30:01;;;;;;;10.68;4.75;;;;;;;-145.61;100.00;68426.72;4794149;29;20031;-92
2021/05/26 04:32:26;;;;;;;9.05;3.88;;;;;;;-145.61;100.00;68426.72;4810461;29;20034;-92
2021/05/26 04:34:52;;;;;;;9.70;4.10;;;;;;;-145.61;100.00;68426.72;4812251;29;20032;-94
2021/05/26 04:37:18;;;;;;;9.90;3.55;;;;;;;-145.61;100.00;68426.72;4828498;29;20315;-94
2021/05/26 04:39:44;;;;;;;7.85;3.85;;;;;;;-145.61;100.00;68426.72;4813136;29;20088;-94
2021/05/26 04:42:10;;;;;;;5.63;3.58;;;;;;;-145.61;100.00;68426.72;4812766;29;20033;-93
2021/05/26 04:44:36;;;;;;;7.03;3.97;;;;;;;-145.61;100.00;68426.72;4812058;29;20038;-92
2021/05/26 04:47:02;;;;;;;6.93;3.97;;;;;;;-145.61;100.00;68426.72;4812153;29;20030;-92
2021/05/26 04:49:28;;;;;;;7.32;4.13;;;;;;;-145.61;100.00;68426.72;4811891;29;20054;-94
2021/05/26 04:51:53;;;;;;;8.27;4.00;;;;;;;-145.61;100.00;68426.72;4812044;29;20446;-95
2021/05/26 04:54:19;;;;;;;7.07;4.47;;;;;;;-145.61;100.00;68426.72;4812076;29;20447;-93
2021/05/26 04:56:45;;;;;;;7.18;3.53;;;;;;;-145.61;100.00;68426.72;4812040;29;20042;-93
2021/05/26 04:59:12;;;;;;;5.85;4.10;;;;;;;-145.61;100.00;68426.72;4803644;29;20057;-95
2021/05/26 05:01:38;;;;;;;6.85;3.92;;;;;;;-145.61;100.00;68426.72;4801469;29;20029;-93
2021/05/26 05:04:04;;;;;;;6.90;3.60;;;;;;;-145.61;100.00;68426.72;4798887;29;20042;-93
2021/05/26 05:06:30;;;;;;;9.68;3.60;;;;;;;-145.61;100.00;68426.72;4798186;29;20113;-92
2021/05/26 05:08:56;;;;;;;9.73;3.65;;;;;;;-145.61;100.00;68426.72;4793847;29;20053;-93
2021/05/26 05:12:01;;;;;;;6.43;3.20;;;;;;;-145.61;100.00;68426.72;4793649;29;20094;-93
2021/05/26 05:14:26;;;;;;;10.20;3.63;;;;;;;-145.61;100.00;68426.72;4793742;29;20145;-95
2021/05/26 05:16:52;;;;;;;7.40;3.33;;;;;;;-145.61;100.00;68426.72;4793798;29;20069;-94
2021/05/26 05:19:17;;;;;;;6.05;3.00;;;;;;;-145.61;100.00;68426.72;4796459;29;20367;-94
2021/05/26 05:21:43;;;;;;;4.03;2.78;;;;;;;-145.61;100.00;68426.72;4797414;29;20042;-95
2021/05/26 05:24:08;;;;;;;5.78;3.05;;;;;;;-145.61;100.00;68426.72;4814005;29;20335;-95
2021/05/26 05:26:34;;;;;;;5.88;2.92;;;;;;;-145.61;100.00;68426.72;4815697;29;20142;-93
2021/05/26 05:29:00;;;;;;;7.68;3.95;;;;;;;-145.61;100.00;68426.72;4815137;29;20026;-95
2021/05/26 05:31:25;;;;;;;5.97;3.17;;;;;;;-145.61;100.00;68426.72;4815042;29;20435;-95
2021/05/26 05:33:51;;;;;;;7.47;3.80;;;;;;;-145.61;100.00;68426.72;4814994;29;20070;-92
2021/05/26 05:36:16;;;;;;;11.10;5.03;;;;;;;-145.61;100.00;68426.72;4815004;29;20129;-94
2021/05/26 05:38:42;;;;;;;11.15;6.55;;;;;;;-145.61;100.00;68426.72;4816792;29;20037;-93
2021/05/26 05:41:46;;;;;;;15.85;7.32;;;;;;;-145.61;100.00;68426.72;4814949;29;20051;-95
2021/05/26 05:44:12;;;;;;;16.90;9.57;;;;;;;-145.61;100.00;68426.72;4815058;29;20046;-93
2021/05/26 05:46:37;;;;;;;27.42;14.88;;;;;;;-145.61;100.00;68426.72;4810845;29;20118;-93
2021/05/26 05:49:03;;;;;;;25.33;15.15;;;;;;;-145.61;100.00;68426.72;4803315;29;20495;-95
2021/05/26 05:51:28;;;;;;;29.92;19.55;;;;;;;-145.61;100.00;68426.72;4816881;29;20117;-94
2021/05/26 05:53:54;;;;;;;23.10;15.57;;;;;;;-145.61;100.00;68426.72;4816500;29;20045;-96
2021/05/26 05:56:21;;;;;;;28.08;17.27;;;;;;;-145.61;100.00;68426.72;4832098;29;20030;-94
2021/05/26 05:58:46;;;;;;;26.15;17.50;;;;;;;-145.61;100.00;68426.72;4800961;29;20030;-93
2021/05/26 06:01:12;;;;;;;28.27;17.15;;;;;;;-145.61;100.00;68426.72;4813942;29;20031;-93
2021/05/26 06:03:37;;;;;;;27.73;17.08;;;;;;;-145.61;100.00;68426.72;4814832;29;20033;-93
2021/05/26 06:06:03;;;;;;;24.55;15.60;;;;;;;-145.61;100.00;68426.72;4815271;29;20124;-93
2021/05/26 06:08:28;;;;;;;23.02;15.07;;;;;;;-145.61;100.00;68426.72;4801002;29;20038;-93
2021/05/26 06:10:54;;;;;;;25.05;16.38;;;;;;;-145.61;100.00;68426.72;4796423;29;20107;-94
2021/05/26 06:13:19;;;;;;;26.15;15.77;;;;;;;-145.61;100.00;68426.72;4796405;29;20117;-93
2021/05/26 06:15:45;;;;;;;19.50;13.52;;;;;;;-145.61;100.00;68426.72;4796493;29;20026;-94
2021/05/26 06:18:11;;;;;;;21.88;14.13;;;;;;;-145.61;100.00;68426.72;4796602;29;20027;-94
2021/05/26 06:20:36;;;;;;;28.13;14.15;;;;;;;-145.61;100.00;68426.72;4796444;29;20331;-94
2021/05/26 06:23:11;;;;;;;22.02;14.68;;;;;;;-145.61;100.00;68426.72;4796460;29;20031;-94
2021/05/26 06:25:37;;;;;;;26.25;16.38;;;;;;;-145.61;100.00;68426.72;4796521;29;20451;-93
2021/05/26 06:28:03;;;;;;;21.25;14.15;;;;;;;-145.61;100.00;68426.72;4797036;29;20069;-95
2021/05/26 06:30:52;;;;;;;22.20;13.45;;;;;;;-145.61;100.00;68426.72;4808198;29;20049;-91
2021/05/26 06:33:18;;;;;;;21.35;12.40;;;;;;;-145.61;100.00;68426.72;4831500;29;20026;-92
2021/05/26 06:35:43;;;;;;;17.00;10.75;;;;;;;-145.61;100.00;68426.72;4820931;29;20436;-92
2021/05/26 06:38:09;;;;;;;19.27;11.57;;;;;;;-145.61;100.00;68426.72;4828129;29;20412;-93
2021/05/26 06:40:34;;;;;;;19.13;11.00;;;;;;;-145.61;100.00;68426.72;4814055;29;20030;-94
2021/05/26 06:43:00;;;;;;;16.95;10.45;;;;;;;-145.61;100.00;68426.72;4814001;29;20058;-93
2021/05/26 06:45:25;;;;;;;13.70;10.30;;;;;;;-145.61;100.00;68426.72;4813963;29;20324;-91
2021/05/26 06:47:50;;;;;;;16.13;10.48;;;;;;;-145.61;100.00;68426.72;4818305;29;20038;-94
2021/05/26 06:50:16;;;;;;;14.95;9.23;;;;;;;-145.61;100.00;68426.72;4831831;29;20073;-92
2021/05/26 06:52:42;;;;;;;13.63;9.30;;;;;;;-145.61;100.00;68426.72;4831914;29;20022;-93
2021/05/26 06:55:08;;;;;;;12.60;7.18;;;;;;;-145.61;100.00;68426.72;4820380;29;20507;-94
2021/05/26 06:57:34;;;;;;;10.57;6.55;;;;;;;-145.61;100.00;68426.72;4814153;29;20398;-95
2021/05/26 06:59:59;;;;;;;10.32;5.82;;;;;;;-145.61;100.00;68426.72;4814118;29;20026;-96
2021/05/26 07:02:25;;;;;;;8.90;5.45;;;;;;;-145.61;100.00;68426.72;4814594;29;20304;-95
2021/05/26 07:04:50;;;;;;;8.60;4.70;;;;;;;-145.61;100.00;68426.72;4814002;29;20400;-94
2021/05/26 07:07:16;;;;;;;6.97;4.10;;;;;;;-145.61;100.00;68426.72;4813727;29;20095;-95
2021/05/26 07:09:41;;;;;;;8.70;4.50;;;;;;;-145.61;100.00;68426.72;4813740;29;20034;-94
2021/05/26 07:12:07;;;;;;;8.52;4.45;;;;;;;-145.61;100.00;68426.72;4815656;29;20034;-95
2021/05/26 07:14:37;;;;;;;8.07;3.95;;;;;;;-145.61;100.00;68426.72;4813698;29;20027;-94
2021/05/26 07:17:03;;;;;;;8.45;4.28;;;;;;;-145.61;100.00;68426.72;4813576;29;20086;-95
2021/05/26 07:19:28;;;;;;;9.50;4.40;;;;;;;-145.61;100.00;68426.72;4813420;29;20030;-93
2021/05/26 07:21:54;;;;;;;5.97;4.18;;;;;;;-145.61;100.00;68426.72;4821219;29;20038;-93
2021/05/26 07:24:19;;;;;;;6.97;4.45;;;;;;;-145.61;100.00;68426.72;4831536;29;20108;-94
2021/05/26 07:26:45;;;;;;;7.32;5.10;;;;;;;-145.61;100.00;68426.72;4831510;29;20033;-95
2021/05/26 07:29:12;;;;;;;9.70;4.72;;;;;;;-145.61;100.00;68426.72;4831404;29;20034;-95
2021/05/26 07:31:39;;;;;;;6.80;4.68;;;;;;;-145.61;100.00;68426.72;4831255;29;20037;-94
2021/05/26 07:34:05;;;;;;;9.70;4.65;;;;;;;-145.61;100.00;68426.72;4831377;29;20331;-94
2021/05/26 07:36:30;;;;;;;9.40;4.15;;;;;;;-145.61;100.00;68426.72;4831402;29;20036;-94
2021/05/26 07:38:56;;;;;;;7.07;3.55;;;;;;;-145.61;100.00;68426.72;4831314;29;20046;-94
2021/05/26 07:41:21;;;;;;;4.20;3.10;;;;;;;-145.61;100.00;68426.72;4830711;29;20026;-95
2021/05/26 07:43:47;;;;;;;5.45;3.10;;;;;;;-145.61;100.00;68426.72;4831735;29;20038;-95
2021/05/26 07:46:13;;;;;;;5.68;3.25;;;;;;;-145.61;100.00;68426.72;4831384;29;20132;-95
2021/05/26 07:48:39;;;;;;;7.07;2.70;;;;;;;-145.61;100.00;68426.72;4831387;29;20112;-94
2021/05/26 07:51:05;;;;;;;4.60;2.67;;;;;;;11.27;62.64;96458.59;4831035;29;20441;-95
2021/05/26 07:53:31;;;;;;;3.63;2.42;;;;;;;11.46;62.04;96472.88;4831498;29;20033;-96
2021/05/26 07:55:56;;;;;;;4.35;2.13;;;;;;;11.46;61.59;96451.13;4831186;29;20312;-95
2021/05/26 07:58:22;;;;;;;8.60;2.97;;;;;;;11.79;61.85;96483.72;4831198;29;20030;-95
2021/05/26 08:00:47;;;;;;;8.38;2.15;;;;;;;12.17;58.89;96529.34;4831931;29;20304;-96
2021/05/26 08:03:13;;;;;;;3.90;2.03;;;;;;;11.83;59.75;96459.84;4831584;29;20343;-96
2021/05/26 08:05:39;;;;;;;3.45;1.85;;;;;;;11.97;57.88;96469.28;4831179;29;20182;-95
2021/05/26 08:08:04;;;;;;;5.10;1.45;;;;;;;12.19;55.70;96474.41;4830862;29;20026;-95
2021/05/26 08:10:30;;;;;;;4.28;1.60;;;;;;;12.48;54.38;96481.91;4830835;29;20033;-94
2021/05/26 08:12:55;;;;;;;4.40;1.40;;;;;;;12.04;49.68;96422.66;4830717;29;20030;-95
2021/05/26 08:15:21;;;;;;;2.65;1.50;;;;;;;12.56;51.42;96489.25;4830897;29;20030;-95
2021/05/26 08:17:47;;;;;;;2.90;1.13;;;;;;;12.38;50.62;96445.84;4812707;29;20076;-94
2021/05/26 08:20:13;;;;;;;4.13;1.02;;;;;;;12.42;51.75;96429.31;4812450;29;20118;-94
2021/05/26 08:22:38;;;;;;;3.42;1.50;;;;;;;12.73;52.21;96453.38;4812209;29;20033;-95
2021/05/26 08:25:05;;;;;;;6.20;1.35;;;;;;;12.63;48.70;96430.94;4812649;29;20030;-95
2021/05/26 08:27:31;;;;;;;2.97;1.10;;;;;;;13.19;46.39;96482.88;4812097;29;20058;-95
2021/05/26 08:29:59;;;;;;;2.35;1.30;;;;;;;12.96;49.78;96435.44;4812448;29;20329;-95
2021/05/26 08:32:25;;;;;;;5.10;1.67;;;;;;;13.04;49.86;96442.00;4812228;29;20416;-94
2021/05/26 08:34:50;;;;;;;2.92;1.17;;;;;;;13.07;48.12;96441.81;4812453;29;20042;-94
2021/05/26 08:37:16;;;;;;;4.60;1.38;;;;;;;13.24;49.45;96453.00;4812103;29;20034;-94
2021/05/26 08:39:43;;;;;;;4.50;1.42;;;;;;;13.61;50.23;96483.31;4818330;29;20030;-95
2021/05/26 08:42:09;;;;;;;3.50;1.30;;;;;;;13.24;47.21;96403.91;4812164;29;20397;-94
2021/05/26 08:44:35;;;;;;;2.92;1.20;;;;;;;13.50;47.04;96450.41;4811936;29;20062;-93
2021/05/26 08:47:03;;;;;;;5.65;1.45;;;;;;;13.57;48.28;96419.25;4811834;29;20125;-95
2021/05/26 08:49:30;;;;;;;4.50;1.42;;;;;;;13.73;47.91;96420.69;4811708;29;20046;-95
2021/05/26 08:52:01;;;;;;;2.58;0.88;;;;;;;13.44;41.17;96391.56;4811638;29;20030;-95
2021/05/26 08:54:27;;;;;;;3.05;1.05;;;;;;;14.21;46.37;96472.16;4812069;29;20037;-94
2021/05/26 08:56:52;;;;;;;4.13;1.38;;;;;;;13.89;43.51;96414.69;4814120;29;20045;-94
2021/05/26 08:59:18;;;;;;;5.47;1.20;;;;;;;14.03;46.56;96413.13;4830145;29;20404;-95
2021/05/26 09:01:49;;;;;;;4.28;1.38;;;;;;;14.03;47.22;96400.22;4830151;29;20037;-94
2021/05/26 09:04:35;;;;;;;2.90;0.90;;;;;;;14.65;46.35;96456.31;4830093;29;20125;-94
2021/05/26 09:07:17;;;;;;;3.15;1.02;;;;;;;14.71;43.43;96453.63;4830055;29;20113;-95
2021/05/26 09:09:49;;;;;;;2.42;0.88;;;;;;;14.72;38.60;96463.31;4796797;29;20205;-94
2021/05/26 09:12:23;;;;;;;6.55;1.20;;;;;;;14.27;43.96;96389.06;4793600;29;20039;-95
2021/05/26 09:14:49;;;;;;;4.03;1.20;;;;;;;14.82;43.84;96444.78;4793791;29;20060;-95
2021/05/26 09:17:14;;;;;;;3.13;0.82;;;;;;;14.67;39.22;96403.88;4796346;29;20127;-95
2021/05/26 09:19:40;;;;;;;2.80;0.88;;;;;;;14.78;39.66;96403.97;4830742;29;20026;-94
2021/05/26 09:22:14;;;;;;;5.30;1.00;;;;;;;15.04;45.17;96414.88;4830067;29;20415;-95
2021/05/26 09:24:40;;;;;;;4.45;0.80;;;;;;;15.04;42.83;96403.19;4830313;29;20049;-96
2021/05/26 09:27:10;;;;;;;5.53;0.88;;;;;;;15.35;43.84;96429.78;4828493;29;20050;-94
2021/05/26 09:29:44;;;;;;;1.30;0.60;;;;;;;15.02;41.03;96368.16;4829919;29;20030;-95
2021/05/26 09:32:24;;;;;;;3.03;0.80;;;;;;;15.63;43.21;96436.19;4829036;29;20431;-93
2021/05/26 09:34:50;;;;;;;4.57;0.85;;;;;;;15.47;36.85;96420.41;4829330;29;20041;-94
2021/05/26 09:37:28;;;;;;;4.88;0.90;;;;;;;14.99;36.26;96369.09;4829877;29;20040;-95
2021/05/26 09:40:03;;;;;;;3.25;0.80;;;;;;;15.45;38.26;96385.31;4829842;29;20435;-95
2021/05/26 09:42:31;;;;;;;2.75;0.80;;;;;;;15.97;36.98;96422.66;4829928;29;20415;-94
2021/05/26 09:45:04;;;;;;;2.20;0.90;;;;;;;15.84;39.03;96387.53;4829845;29;20460;-93
2021/05/26 09:47:50;;;;;;;2.38;0.90;;;;;;;16.29;44.06;96403.34;4815406;29;20034;-93
2021/05/26 09:50:25;;;;;;;4.53;1.15;;;;;;;16.47;40.64;96411.13;4811525;29;20057;-93
2021/05/26 09:52:53;;;;;;;3.80;1.40;;;;;;;16.80;46.70;96399.47;4811540;29;20030;-94
2021/05/26 09:55:24;;;;;;;2.17;0.80;;;;;;;16.24;37.19;96342.59;4811431;29;20038;-94
2021/05/26 09:57:51;;;;;;;1.77;0.70;;;;;;;16.64;34.72;96381.75;4811539;29;20411;-93
2021/05/26 10:00:17;;;;;;;2.75;1.10;;;;;;;16.77;42.43;96349.09;4811427;29;20038;-93
2021/05/26 10:02:43;;;;;;;2.53;0.68;;;;;;;16.53;34.07;96331.66;4811178;29;20117;-92
2021/05/26 10:05:10;;;;;;;1.58;0.60;;;;;;;16.41;34.16;96315.19;4813492;29;20072;-92
2021/05/26 10:07:37;;;;;;;2.67;0.80;;;;;;;16.40;34.80;96310.19;4810101;29;20037;-93
2021/05/26 10:10:04;;;;;;;3.08;1.13;;;;;;;16.77;35.03;96313.47;4814595;29;20030;-94
2021/05/26 10:12:33;;;;;;;2.95;0.98;;;;;;;16.91;35.93;96322.69;4834799;29;20086;-93
2021/05/26 10:15:01;;;;;;;2.25;0.52;;;;;;;16.99;33.93;96342.13;4822664;29;20034;-95
2021/05/26 10:17:34;;;;;;;3.90;0.80;;;;;;;17.18;35.57;96337.59;4817937;29;20037;-94
2021/05/26 10:20:00;;;;;;;3.15;0.90;;;;;;;17.30;34.73;96332.84;4808272;29;20034;-95
2021/05/26 10:22:28;;;;;;;2.33;0.55;;;;;;;16.97;33.30;96311.72;4797716;29;20437;-94
2021/05/26 10:24:55;;;;;;;3.17;0.57;;;;;;;17.03;33.01;96307.69;4811301;29;20038;-94
2021/05/26 10:27:34;;;;;;;2.63;0.80;;;;;;;17.32;30.56;96368.78;4796255;29;20125;-94
2021/05/26 10:30:02;;;;;;;3.10;0.85;;;;;;;17.28;31.55;96327.13;4796068;29;20030;-94
2021/05/26 10:32:29;;;;;;;1.13;0.40;;;;;;;17.11;29.34;96305.22;4796539;29;20058;-93
2021/05/26 10:34:54;;;;;;;1.55;0.57;;;;;;;17.88;32.79;96363.13;4796079;29;20098;-94
2021/05/26 10:37:23;;;;;;;1.08;0.55;;;;;;;17.95;31.00;96356.34;4796138;29;20484;-94
2021/05/26 10:39:49;;;;;;;2.72;0.80;;;;;;;17.53;32.97;96295.84;4796307;29;20176;-94
2021/05/26 10:42:34;;;;;;;1.73;0.70;;;;;;;17.50;29.29;96310.56;4795993;29;20408;-95
2021/05/26 10:45:05;;;;;;;2.22;0.93;;;;;;;17.20;30.26;96272.00;4796050;29;20333;-94
2021/05/26 10:47:37;;;;;;;1.20;0.50;;;;;;;17.76;32.81;96347.94;4796220;29;20443;-95
2021/05/26 10:50:14;;;;;;;1.77;0.60;;;;;;;17.48;33.26;96291.13;4795905;29;20138;-95
2021/05/26 10:52:58;;;;;;;2.72;0.70;;;;;;;18.00;32.22;96336.34;4805463;29;20195;-96
2021/05/26 10:55:47;;;;;;;2.45;0.80;;;;;;;18.54;30.76;96330.28;4801337;29;20045;-96
2021/05/26 10:58:20;;;;;;;2.38;0.70;;;;;;;18.87;30.14;96331.28;4791882;29;20035;-95
2021/05/26 11:00:58;;;;;;;1.73;0.80;;;;;;;19.04;29.16;96331.88;4795863;29;20031;-95
2021/05/26 11:06:13;;;;;;;1.13;0.70;;;;;;;17.83;32.82;96287.00;4813742;29;20393;-95
2021/05/26 11:14:33;;;;;;;2.40;0.80;;;;;;;19.03;31.33;96320.13;4817305;29;20038;-96
2021/05/26 11:17:02;;;;;;;2.47;0.80;;;;;;;18.62;31.31;96314.72;4796429;29;20062;-95
2021/05/26 11:19:30;;;;;;;4.43;0.65;;;;;;;18.40;32.16;96279.88;4796543;29;20039;-96
2021/05/26 11:21:56;;;;;;;2.53;0.85;;;;;;;18.77;32.09;96311.63;4795430;29;20363;-96
2021/05/26 11:24:23;;;;;;;2.80;0.60;;;;;;;18.17;32.04;96271.06;4797124;29;20031;-96
2021/05/26 11:26:49;;;;;;;2.97;0.75;;;;;;;17.51;29.38;96221.47;4810908;29;20041;-96
2021/05/26 11:29:32;;;;;;;1.35;0.70;;;;;;;18.46;33.18;96266.09;4795266;29;20121;-95
2021/05/26 11:32:18;;;;;;;1.13;0.60;;;;;;;19.06;30.83;96310.84;4810808;29;20049;-95
2021/05/26 11:34:45;;;;;;;3.60;0.63;;;;;;;18.69;31.45;96302.41;4795772;29;20420;-95